Time;durP1;ratioP1;P1;durP2;ratioP2;P2;SDS_P1;SDS_P2;PMS_P1;PMS_P2;Temp;Humidity;BMP_temperature;BMP_pressure;BME280_temperature;BME280_humidity;BME280_pressure;Samples;Min_cycle;Max_cycle;Signal;HPM_P1;HPM_P2
2023/12/18 00:01:06;;;;;;;12.87;6.30;;;;;;;;;;5055111;28;20048;-86
2023/12/18 00:03:32;;;;;;;23.90;7.35;;;;;;;;;;5044460;28;20014;-81
2023/12/18 00:05:58;;;;;;;8.67;5.63;;;;;;;;;;5052067;28;20021;-80
2023/12/18 00:11:23;;;;;;;11.20;5.87;;;;;;;;;;5069162;28;20064;-81
2023/12/18 00:16:47;;;;;;;10.20;5.77;;;;;;;;;;5053019;28;20038;-86
2023/12/18 00:19:18;;;;;;;20.47;6.27;;;;;;;;;;5049302;28;20046;-86
2023/12/18 00:21:57;;;;;;;;;;;;;;;;;;;;;
2023/12/18 00:24:26;;;;;;;9.77;5.47;;;;;;;;;;5047396;28;20315;-84
2023/12/18 00:26:55;;;;;;;12.13;5.13;;;;;;;;;;5044899;28;20030;-85
2023/12/18 00:29:34;;;;;;;17.37;8.17;;;;;;;;;;5059754;28;20098;-83
2023/12/18 00:32:00;;;;;;;16.23;6.50;;;;;;;;;;5039329;28;20044;-85
2023/12/18 00:34:33;;;;;;;13.70;5.77;;;;;;;;;;5047484;28;20040;-83
2023/12/18 00:37:07;;;;;;;19.90;7.00;;;;;;;;;;5065947;28;20034;-84
2023/12/18 00:39:36;;;;;;;13.33;6.87;;;;;;;;;;5049090;28;20021;-84
2023/12/18 00:42:07;;;;;;;14.37;7.03;;;;;;;;;;5049290;28;20092;-83
2023/12/18 00:44:33;;;;;;;13.93;6.53;;;;;;;;;;5048778;28;20117;-86
2023/12/18 00:47:10;;;;;;;22.20;7.13;;;;;;;;;;5045708;28;20032;-84
2023/12/18 00:49:36;;;;;;;14.00;7.20;;;;;;;;;;5050993;28;20057;-85
2023/12/18 00:52:15;;;;;;;;;;;;;;;;;;;;;
2023/12/18 00:54:41;;;;;;;13.23;6.60;;;;;;;;;;5048380;28;20113;-85
2023/12/18 00:57:07;;;;;;;11.50;5.47;;;;;;;;;;5049945;28;20029;-83
2023/12/18 00:59:33;;;;;;;11.37;6.03;;;;;;;;;;5049456;28;20494;-87
2023/12/18 01:02:06;;;;;;;11.63;6.73;;;;;;;;;;5066250;28;20025;-82
2023/12/18 01:04:42;;;;;;;13.20;6.73;;;;;;;;;;5049173;28;20081;-84
2023/12/18 01:07:16;;;;;;;12.90;5.50;;;;;;;;;;5051628;28;20021;-83
2023/12/18 01:09:42;;;;;;;18.13;6.57;;;;;;;;;;5067918;28;20041;-85
2023/12/18 01:12:11;;;;;;;13.33;6.57;;;;;;;;;;5052137;28;20045;-87
2023/12/18 01:14:39;;;;;;;13.17;6.90;;;;;;;;;;5049367;28;20025;-85
2023/12/18 01:17:08;;;;;;;12.03;5.97;;;;;;;;;;5067465;28;20053;-86
2023/12/18 01:19:34;;;;;;;11.80;6.03;;;;;;;;;;5066202;28;20089;-88
2023/12/18 01:22:02;;;;;;;15.23;5.83;;;;;;;;;;5050876;28;20018;-83
2023/12/18 01:24:33;;;;;;;10.73;5.63;;;;;;;;;;5050370;28;20024;-88
2023/12/18 01:27:02;;;;;;;13.90;6.40;;;;;;;;;;5068499;28;20025;-86
2023/12/18 01:29:31;;;;;;;14.87;5.80;;;;;;;;;;5067376;28;20098;-86
2023/12/18 01:31:59;;;;;;;11.00;6.23;;;;;;;;;;5050771;28;20033;-87
2023/12/18 01:34:33;;;;;;;12.10;6.33;;;;;;;;;;5052222;28;20421;-84
2023/12/18 01:37:03;;;;;;;10.57;6.43;;;;;;;;;;5050881;28;20033;-89
2023/12/18 01:39:38;;;;;;;19.00;6.80;;;;;;;;;;5047144;28;20013;-84
2023/12/18 01:42:07;;;;;;;12.70;6.80;;;;;;;;;;5050528;28;20056;-87
2023/12/18 01:44:33;;;;;;;13.60;6.90;;;;;;;;;;5045299;28;20022;-87
2023/12/18 01:47:07;;;;;;;13.20;6.97;;;;;;;;;;5066133;28;20029;-88
2023/12/18 01:49:33;;;;;;;12.73;7.37;;;;;;;;;;5049389;28;20029;-84
2023/12/18 01:52:00;;;;;;;12.60;6.27;;;;;;;;;;5049585;28;20025;-87
2023/12/18 01:54:26;;;;;;;13.00;6.07;;;;;;;;;;5049034;28;20063;-89
2023/12/18 01:56:53;;;;;;;9.37;5.27;;;;;;;;;;5049710;28;20038;-88
2023/12/18 01:59:21;;;;;;;14.40;7.17;;;;;;;;;;5048029;28;20021;-90
2023/12/18 02:01:47;;;;;;;12.93;7.30;;;;;;;;;;5048049;28;20034;-88
2023/12/18 02:04:17;;;;;;;13.83;6.87;;;;;;;;;;5048538;28;20033;-88
2023/12/18 02:06:44;;;;;;;13.40;6.57;;;;;;;;;;5047302;28;20029;-89
2023/12/18 02:09:15;;;;;;;15.53;6.93;;;;;;;;;;5047078;28;20034;-87
2023/12/18 02:11:45;;;;;;;14.10;6.17;;;;;;;;;;5047792;28;20025;-86
2023/12/18 02:14:12;;;;;;;10.57;5.83;;;;;;;;;;5028470;28;20037;-87
2023/12/18 02:16:38;;;;;;;14.93;5.67;;;;;;;;;;5047445;28;20049;-87
2023/12/18 02:19:04;;;;;;;10.67;5.83;;;;;;;;;;5047651;28;20064;-87
2023/12/18 02:21:31;;;;;;;14.77;6.77;;;;;;;;;;5045788;28;20032;-86
2023/12/18 02:23:56;;;;;;;11.23;6.07;;;;;;;;;;5043016;28;20092;-86
2023/12/18 02:26:23;;;;;;;10.43;5.83;;;;;;;;;;5039509;28;20061;-89
2023/12/18 02:28:49;;;;;;;14.77;6.23;;;;;;;;;;5039511;28;20115;-86
2023/12/18 02:31:17;;;;;;;13.77;6.20;;;;;;;;;;5039911;28;20033;-88
2023/12/18 02:33:48;;;;;;;13.17;6.87;;;;;;;;;;5043272;28;20032;-89
2023/12/18 02:36:15;;;;;;;11.50;6.17;;;;;;;;;;5035947;28;20032;-89
2023/12/18 02:38:41;;;;;;;12.47;7.23;;;;;;;;;;5037911;28;20076;-90
2023/12/18 02:41:09;;;;;;;11.53;5.80;;;;;;;;;;5037846;28;20049;-88
2023/12/18 02:43:38;;;;;;;11.80;6.23;;;;;;;;;;5036022;28;20461;-90
2023/12/18 02:46:04;;;;;;;13.00;5.70;;;;;;;;;;5036505;28;20288;-90
2023/12/18 02:48:30;;;;;;;10.47;6.23;;;;;;;;;;5024123;28;20281;-87
2023/12/18 02:50:56;;;;;;;14.83;6.30;;;;;;;;;;5015398;28;20042;-90
2023/12/18 02:53:22;;;;;;;13.90;6.03;;;;;;;;;;5017982;28;20383;-91
2023/12/18 02:55:48;;;;;;;11.13;6.27;;;;;;;;;;5016999;28;20060;-88
2023/12/18 02:58:15;;;;;;;10.53;6.00;;;;;;;;;;5022220;28;20045;-89
2023/12/18 03:00:41;;;;;;;16.40;6.43;;;;;;;;;;5038041;28;20284;-88
2023/12/18 03:03:07;;;;;;;12.30;6.20;;;;;;;;;;5020420;28;20221;-87
2023/12/18 03:05:32;;;;;;;13.10;6.37;;;;;;;;;;5021652;28;20544;-88
2023/12/18 03:07:58;;;;;;;13.00;6.27;;;;;;;;;;5017039;28;20071;-89
2023/12/18 03:10:24;;;;;;;11.27;5.93;;;;;;;;;;5031136;28;20045;-90
2023/12/18 03:12:50;;;;;;;13.00;7.20;;;;;;;;;;5023222;28;20029;-87
2023/12/18 03:15:17;;;;;;;14.43;5.83;;;;;;;;;;5033132;28;20779;-86
2023/12/18 03:17:43;;;;;;;12.07;6.33;;;;;;;;;;5023394;28;20080;-88
2023/12/18 03:20:09;;;;;;;13.87;6.33;;;;;;;;;;5049378;28;20041;-89
2023/12/18 03:22:36;;;;;;;14.53;6.93;;;;;;;;;;5040395;28;20029;-87
2023/12/18 03:25:02;;;;;;;12.50;6.37;;;;;;;;;;5040513;28;20376;-84
2023/12/18 03:27:30;;;;;;;11.63;6.17;;;;;;;;;;5039257;28;20716;-89
2023/12/18 03:29:56;;;;;;;13.23;6.43;;;;;;;;;;5041919;28;20295;-84
2023/12/18 03:32:22;;;;;;;12.23;6.43;;;;;;;;;;5037335;28;20323;-91
2023/12/18 03:34:48;;;;;;;10.07;5.23;;;;;;;;;;5025053;28;20276;-85
2023/12/18 03:37:14;;;;;;;13.00;7.00;;;;;;;;;;5037480;28;20276;-90
2023/12/18 03:39:40;;;;;;;13.83;6.50;;;;;;;;;;5043128;28;20021;-88
2023/12/18 03:42:06;;;;;;;13.20;6.73;;;;;;;;;;5039741;28;20286;-85
2023/12/18 03:44:32;;;;;;;13.07;6.83;;;;;;;;;;5039742;28;20125;-87
2023/12/18 03:46:58;;;;;;;12.70;6.43;;;;;;;;;;5038419;28;20283;-88
2023/12/18 03:49:24;;;;;;;14.03;6.80;;;;;;;;;;5058550;28;20343;-85
2023/12/18 03:51:50;;;;;;;17.27;6.40;;;;;;;;;;5043034;28;20302;-89
2023/12/18 03:54:16;;;;;;;16.27;5.77;;;;;;;;;;5060944;28;20215;-87
2023/12/18 03:56:42;;;;;;;18.20;7.07;;;;;;;;;;5042915;28;20306;-85
2023/12/18 03:59:08;;;;;;;11.40;6.00;;;;;;;;;;5042510;28;20287;-87
2023/12/18 04:01:35;;;;;;;12.67;6.70;;;;;;;;;;5059452;28;20371;-89
2023/12/18 04:04:01;;;;;;;9.70;5.70;;;;;;;;;;5057573;28;20029;-85
2023/12/18 04:06:27;;;;;;;11.40;6.23;;;;;;;;;;5040116;28;20294;-88
2023/12/18 04:08:53;;;;;;;9.93;5.70;;;;;;;;;;5061886;28;21536;-89
2023/12/18 04:11:21;;;;;;;17.23;7.43;;;;;;;;;;5042586;28;20132;-88
2023/12/18 04:13:47;;;;;;;13.83;7.07;;;;;;;;;;5042496;28;20025;-90
2023/12/18 04:16:13;;;;;;;15.30;7.23;;;;;;;;;;5040985;28;20275;-89
2023/12/18 04:18:39;;;;;;;11.67;6.60;;;;;;;;;;5060118;28;20017;-89
2023/12/18 04:21:05;;;;;;;13.10;6.40;;;;;;;;;;5042192;28;20042;-90
2023/12/18 04:23:31;;;;;;;10.77;6.20;;;;;;;;;;5036742;28;20363;-89
2023/12/18 04:25:57;;;;;;;12.10;6.20;;;;;;;;;;5035456;28;20037;-89
2023/12/18 04:28:25;;;;;;;13.00;5.93;;;;;;;;;;5038529;28;20057;-87
2023/12/18 04:30:51;;;;;;;11.13;6.33;;;;;;;;;;5035205;28;20049;-93
2023/12/18 04:33:17;;;;;;;15.80;7.27;;;;;;;;;;5036209;28;20739;-88
2023/12/18 04:35:43;;;;;;;18.07;7.10;;;;;;;;;;5038188;28;20057;-89
2023/12/18 04:38:09;;;;;;;13.27;7.23;;;;;;;;;;5050822;28;20343;-90
2023/12/18 04:40:35;;;;;;;12.60;6.83;;;;;;;;;;5033993;28;20782;-90
2023/12/18 04:43:01;;;;;;;13.83;6.97;;;;;;;;;;5039695;28;20033;-91
2023/12/18 04:45:27;;;;;;;12.90;6.93;;;;;;;;;;5028372;28;20287;-91
2023/12/18 04:47:53;;;;;;;11.77;6.47;;;;;;;;;;5035098;28;20040;-91
2023/12/18 04:50:22;;;;;;;13.73;6.90;;;;;;;;;;5044935;28;20351;-90
2023/12/18 04:52:48;;;;;;;12.53;6.30;;;;;;;;;;5043880;28;20046;-93
2023/12/18 04:55:14;;;;;;;16.50;7.47;;;;;;;;;;5036179;28;20327;-89
2023/12/18 04:57:40;;;;;;;14.30;6.93;;;;;;;;;;5043552;28;20280;-93
2023/12/18 05:00:06;;;;;;;13.80;7.30;;;;;;;;;;5048017;28;20275;-90
2023/12/18 05:02:32;;;;;;;15.83;8.03;;;;;;;;;;5047816;28;20037;-91
2023/12/18 05:04:58;;;;;;;13.73;6.63;;;;;;;;;;5042058;28;20271;-90
2023/12/18 05:07:26;;;;;;;17.70;7.87;;;;;;;;;;5036909;28;20268;-89
2023/12/18 05:09:54;;;;;;;19.37;7.17;;;;;;;;;;5046865;28;20029;-92
2023/12/18 05:12:21;;;;;;;16.13;7.57;;;;;;;;;;5036632;28;20701;-90
2023/12/18 05:14:47;;;;;;;16.53;7.23;;;;;;;;;;5041550;28;20506;-92
2023/12/18 05:17:13;;;;;;;16.93;8.17;;;;;;;;;;5040569;28;20712;-91
2023/12/18 05:19:39;;;;;;;14.23;7.27;;;;;;;;;;5039929;28;20021;-90
2023/12/18 05:22:05;;;;;;;18.17;7.90;;;;;;;;;;5037187;28;20033;-90
2023/12/18 05:24:34;;;;;;;13.73;7.20;;;;;;;;;;5043336;28;20029;-91
2023/12/18 05:27:00;;;;;;;20.80;7.70;;;;;;;;;;5039830;28;20280;-91
2023/12/18 05:29:25;;;;;;;15.00;7.80;;;;;;;;;;5036331;28;20386;-92
2023/12/18 05:31:52;;;;;;;13.03;6.90;;;;;;;;;;5049635;28;20090;-92
2023/12/18 05:34:18;;;;;;;23.13;7.43;;;;;;;;;;5037988;28;20037;-92
2023/12/18 05:36:44;;;;;;;13.50;6.87;;;;;;;;;;5037895;28;20296;-91
2023/12/18 05:39:10;;;;;;;14.47;6.97;;;;;;;;;;5037982;28;20338;-91
2023/12/18 05:41:36;;;;;;;10.37;6.40;;;;;;;;;;5038882;28;20029;-91
2023/12/18 05:44:02;;;;;;;16.47;7.77;;;;;;;;;;5037844;28;20268;-92
2023/12/18 05:46:28;;;;;;;13.10;7.13;;;;;;;;;;5037994;28;20269;-92
2023/12/18 05:48:54;;;;;;;17.23;7.40;;;;;;;;;;5033771;28;20033;-92
2023/12/18 05:51:21;;;;;;;12.87;7.07;;;;;;;;;;5033154;28;20367;-94
2023/12/18 05:53:47;;;;;;;12.70;7.07;;;;;;;;;;5040727;28;20030;-91
2023/12/18 05:56:13;;;;;;;15.97;7.50;;;;;;;;;;5037845;28;20269;-92
2023/12/18 05:58:39;;;;;;;15.90;7.47;;;;;;;;;;5051841;28;20287;-91
2023/12/18 06:01:07;;;;;;;15.00;7.40;;;;;;;;;;5052200;28;20030;-91
2023/12/18 06:03:33;;;;;;;16.83;8.13;;;;;;;;;;5038484;28;20583;-88
2023/12/18 06:06:01;;;;;;;16.07;7.90;;;;;;;;;;5038428;28;20287;-92
2023/12/18 06:08:27;;;;;;;15.57;7.47;;;;;;;;;;5049302;28;20083;-92
2023/12/18 06:10:53;;;;;;;18.13;8.70;;;;;;;;;;5055335;28;20288;-89
2023/12/18 06:13:20;;;;;;;22.97;8.03;;;;;;;;;;5052185;28;20089;-91
2023/12/18 06:15:46;;;;;;;14.50;7.17;;;;;;;;;;5038838;28;20026;-91
2023/12/18 06:18:12;;;;;;;16.30;6.87;;;;;;;;;;5035522;28;20264;-90
2023/12/18 06:20:38;;;;;;;14.87;7.60;;;;;;;;;;5032851;28;20357;-86
2023/12/18 06:23:04;;;;;;;19.47;8.53;;;;;;;;;;5036312;28;20104;-90
2023/12/18 06:25:30;;;;;;;11.47;6.10;;;;;;;;;;5028866;28;20030;-90
2023/12/18 06:27:56;;;;;;;14.67;7.80;;;;;;;;;;5035658;28;20294;-91
2023/12/18 06:30:22;;;;;;;12.93;7.50;;;;;;;;;;5048078;28;20044;-91
2023/12/18 06:32:48;;;;;;;14.57;7.80;;;;;;;;;;5031723;28;20026;-89
2023/12/18 06:35:16;;;;;;;15.00;8.00;;;;;;;;;;5027824;28;20268;-92
2023/12/18 06:37:43;;;;;;;16.73;7.20;;;;;;;;;;5029592;28;20025;-90
2023/12/18 06:40:09;;;;;;;15.97;8.03;;;;;;;;;;5033136;28;20748;-89
2023/12/18 06:42:35;;;;;;;18.70;7.73;;;;;;;;;;5029664;28;20291;-89
2023/12/18 06:45:01;;;;;;;17.43;7.63;;;;;;;;;;5034449;28;20793;-90
2023/12/18 06:47:27;;;;;;;16.70;7.60;;;;;;;;;;5035011;28;20029;-89
2023/12/18 06:49:53;;;;;;;15.60;7.87;;;;;;;;;;5034595;28;20037;-90
2023/12/18 06:52:19;;;;;;;20.03;8.67;;;;;;;;;;5035573;28;20268;-92
2023/12/18 06:54:45;;;;;;;17.07;7.90;;;;;;;;;;5035199;28;20029;-87
2023/12/18 06:57:12;;;;;;;16.03;7.47;;;;;;;;;;5049655;28;20033;-91
2023/12/18 06:59:38;;;;;;;18.67;8.20;;;;;;;;;;5034510;28;21804;-91
2023/12/18 07:02:04;;;;;;;18.43;9.33;;;;;;;;;;5034944;28;20817;-90
2023/12/18 07:04:49;;;;;;;17.77;9.40;;;;;;;;;;5034195;28;20283;-90
2023/12/18 07:07:15;;;;;;;20.93;11.53;;;;;;;;;;5025843;28;20279;-88
2023/12/18 07:09:41;;;;;;;22.87;12.13;;;;;;;;;;5034625;28;20359;-91
2023/12/18 07:12:07;;;;;;;23.97;12.30;;;;;;;;;;5033722;28;20350;-91
2023/12/18 07:14:33;;;;;;;23.53;12.43;;;;;;;;;;5033842;28;20306;-91
2023/12/18 07:16:59;;;;;;;24.13;12.67;;;;;;;;;;5033557;28;20276;-92
2023/12/18 07:19:25;;;;;;;19.30;11.07;;;;;;;;;;5035255;28;20060;-88
2023/12/18 07:22:12;;;;;;;22.53;11.03;;;;;;;;;;5028715;28;20073;-90
2023/12/18 07:24:39;;;;;;;21.80;10.37;;;;;;;;;;5034346;28;20037;-91
2023/12/18 07:27:38;;;;;;;18.67;11.00;;;;;;;;;;5033835;28;20358;-89
2023/12/18 07:30:04;;;;;;;19.97;10.93;;;;;;;;;;5031061;28;20276;-92
2023/12/18 07:32:33;;;;;;;21.67;9.50;;;;;;;;;;5024575;28;20278;-90
2023/12/18 07:35:00;;;;;;;19.80;9.10;;;;;;;;;;5035993;28;20276;-90
2023/12/18 07:37:29;;;;;;;26.13;10.63;;;;;;;;;;5034537;28;20355;-90
2023/12/18 07:39:55;;;;;;;25.20;9.80;;;;;;;;;;5036282;28;20323;-87
2023/12/18 07:42:28;;;;;;;27.07;11.70;;;;;;;;;;5046417;28;20283;-88
2023/12/18 07:44:54;;;;;;;21.55;10.85;;;;;;;;;;5025120;28;20272;-89
2023/12/18 07:47:20;;;;;;;19.20;10.20;;;;;;;;;;5033740;28;20084;-88
2023/12/18 07:49:46;;;;;;;20.80;9.90;;;;;;;;;;5032724;28;20272;-91
2023/12/18 07:52:12;;;;;;;19.93;10.43;;;;;;;;;;5033415;28;20303;-89
2023/12/18 07:54:47;;;;;;;24.57;10.53;;;;;;;;;;5032977;28;20472;-89
2023/12/18 07:57:13;;;;;;;23.43;11.37;;;;;;;;;;5033306;28;20276;-87
2023/12/18 07:59:42;;;;;;;24.37;11.63;;;;;;;;;;5031504;28;20609;-85
2023/12/18 08:02:08;;;;;;;25.33;10.87;;;;;;;;;;5031329;28;20063;-91
2023/12/18 08:04:35;;;;;;;99.40;60.17;;;;;;;;;;5032846;28;20276;-91
2023/12/18 08:07:01;;;;;;;89.97;53.67;;;;;;;;;;5033483;28;20287;-90
2023/12/18 08:09:29;;;;;;;56.87;33.73;;;;;;;;;;5033185;28;20268;-89
2023/12/18 08:12:00;;;;;;;43.27;27.70;;;;;;;;;;5033230;28;20048;-93
2023/12/18 08:14:29;;;;;;;60.03;37.93;;;;;;;;;;5027861;28;20277;-89
2023/12/18 08:16:55;;;;;;;30.37;16.57;;;;;;;;;;5033592;28;20280;-87
2023/12/18 08:19:21;;;;;;;25.23;13.63;;;;;;;;;;5032062;28;20279;-89
2023/12/18 08:22:12;;;;;;;25.93;11.93;;;;;;;;;;5033246;28;20049;-90
2023/12/18 08:24:38;;;;;;;23.47;11.20;;;;;;;;;;5033908;28;20632;-87
2023/12/18 08:27:04;;;;;;;27.70;12.57;;;;;;;;;;5033399;28;20366;-88
2023/12/18 08:29:30;;;;;;;22.23;11.60;;;;;;;;;;5036876;28;20043;-89
2023/12/18 08:31:57;;;;;;;22.87;10.70;;;;;;;;;;5035735;28;20287;-91
2023/12/18 08:34:24;;;;;;;21.30;10.23;;;;;;;;;;5035008;28;20037;-90
2023/12/18 08:36:50;;;;;;;19.97;10.23;;;;;;;;;;5030625;28;20277;-91
2023/12/18 08:39:25;;;;;;;27.07;12.10;;;;;;;;;;5033006;28;20342;-90
2023/12/18 08:41:51;;;;;;;22.87;11.07;;;;;;;;;;5031734;28;20458;-89
2023/12/18 08:44:18;;;;;;;24.67;11.47;;;;;;;;;;5033331;28;20290;-89
2023/12/18 08:46:44;;;;;;;19.57;11.27;;;;;;;;;;5033174;28;20093;-91
2023/12/18 08:49:14;;;;;;;23.53;11.50;;;;;;;;;;5030665;28;20344;-88
2023/12/18 08:51:42;;;;;;;20.87;10.40;;;;;;;;;;5027682;28;20318;-87
2023/12/18 08:54:10;;;;;;;32.20;15.07;;;;;;;;;;5031233;28;20319;-90
2023/12/18 08:56:36;;;;;;;32.47;14.83;;;;;;;;;;5035686;28;20279;-88
2023/12/18 08:59:02;;;;;;;29.87;13.83;;;;;;;;;;5038993;28;21849;-86
2023/12/18 09:01:28;;;;;;;32.30;15.07;;;;;;;;;;5041417;28;20315;-88
2023/12/18 09:03:57;;;;;;;23.57;12.40;;;;;;;;;;5039998;28;20033;-87
2023/12/18 09:06:23;;;;;;;24.37;12.50;;;;;;;;;;5038534;28;20029;-88
2023/12/18 09:08:49;;;;;;;27.00;12.53;;;;;;;;;;5041685;28;21204;-86
2023/12/18 09:11:16;;;;;;;29.30;13.40;;;;;;;;;;5038300;28;20068;-89
2023/12/18 09:13:42;;;;;;;26.67;14.17;;;;;;;;;;5036905;28;20272;-89
2023/12/18 09:16:08;;;;;;;30.33;14.73;;;;;;;;;;5035963;28;20298;-85
2023/12/18 09:18:34;;;;;;;33.63;13.90;;;;;;;;;;5033778;28;20036;-87
2023/12/18 09:21:07;;;;;;;28.90;13.93;;;;;;;;;;5037290;28;20295;-89
2023/12/18 09:23:33;;;;;;;28.57;14.03;;;;;;;;;;5039951;28;20284;-88
2023/12/18 09:25:59;;;;;;;30.43;14.67;;;;;;;;;;5037294;28;20064;-89
2023/12/18 09:28:26;;;;;;;25.83;12.87;;;;;;;;;;5039478;28;20280;-90
2023/12/18 09:30:52;;;;;;;24.53;12.73;;;;;;;;;;5042217;28;20026;-87
2023/12/18 09:33:18;;;;;;;24.47;12.57;;;;;;;;;;5042018;28;20030;-86
2023/12/18 09:35:44;;;;;;;22.87;12.40;;;;;;;;;;5039131;28;20036;-84
2023/12/18 09:38:10;;;;;;;28.30;12.90;;;;;;;;;;5040751;28;20037;-87
2023/12/18 09:40:42;;;;;;;26.77;13.07;;;;;;;;;;5040655;28;20079;-87
2023/12/18 09:43:08;;;;;;;22.80;11.60;;;;;;;;;;5029074;28;20291;-88
2023/12/18 09:45:34;;;;;;;23.57;12.80;;;;;;;;;;5038334;28;20276;-88
2023/12/18 09:48:01;;;;;;;23.97;13.23;;;;;;;;;;5043675;28;20060;-90
2023/12/18 09:50:27;;;;;;;30.47;13.30;;;;;;;;;;5038871;28;20656;-86
2023/12/18 09:53:03;;;;;;;32.10;14.97;;;;;;;;;;5022014;28;20276;-88
2023/12/18 09:55:32;;;;;;;32.07;16.13;;;;;;;;;;5025775;28;20281;-85
2023/12/18 09:58:00;;;;;;;34.27;15.40;;;;;;;;;;5043213;28;20291;-87
2023/12/18 10:00:26;;;;;;;33.57;16.90;;;;;;;;;;5025905;28;20287;-89
2023/12/18 10:02:53;;;;;;;37.40;17.17;;;;;;;;;;5041064;28;20272;-87
2023/12/18 10:05:19;;;;;;;49.20;22.40;;;;;;;;;;5037333;28;20287;-90
2023/12/18 10:07:46;;;;;;;51.23;28.40;;;;;;;;;;5036853;28;20287;-89
2023/12/18 10:10:12;;;;;;;43.50;21.20;;;;;;;;;;5028860;28;20472;-87
2023/12/18 10:12:38;;;;;;;45.27;26.47;;;;;;;;;;5036688;28;20093;-85
2023/12/18 10:15:08;;;;;;;45.17;20.73;;;;;;;;;;5038755;28;20462;-88
2023/12/18 10:17:38;;;;;;;43.90;20.53;;;;;;;;;;5033619;28;20522;-86
2023/12/18 10:20:04;;;;;;;38.73;18.50;;;;;;;;;;5039653;28;20021;-85
2023/12/18 10:22:31;;;;;;;41.53;19.20;;;;;;;;;;5039823;28;20036;-88
2023/12/18 10:25:04;;;;;;;35.67;17.70;;;;;;;;;;5044987;28;20041;-88
2023/12/18 10:27:36;;;;;;;41.77;17.07;;;;;;;;;;5042319;28;20037;-86
2023/12/18 10:30:02;;;;;;;34.10;16.98;;;;;;;;;;5043275;28;20059;-87
2023/12/18 10:32:28;;;;;;;29.73;15.80;;;;;;;;;;5043201;28;20029;-82
2023/12/18 10:35:00;;;;;;;32.83;16.57;;;;;;;;;;5040311;28;20039;-88
2023/12/18 10:37:28;;;;;;;34.70;18.20;;;;;;;;;;5043277;28;20029;-84
2023/12/18 10:39:57;;;;;;;37.60;16.93;;;;;;;;;;5046994;28;20017;-88
2023/12/18 10:42:36;;;;;;;40.83;19.27;;;;;;;;;;5047551;28;20032;-88
2023/12/18 10:45:03;;;;;;;35.40;18.07;;;;;;;;;;5049462;28;20357;-88
2023/12/18 10:47:31;;;;;;;32.07;15.70;;;;;;;;;;5052205;28;20017;-91
2023/12/18 10:50:06;;;;;;;34.70;17.67;;;;;;;;;;5052027;28;20025;-91
2023/12/18 10:52:34;;;;;;;36.63;17.33;;;;;;;;;;5049058;28;20025;-89
2023/12/18 10:55:14;;;;;;;31.37;17.23;;;;;;;;;;5055066;28;20018;-90
2023/12/18 10:57:42;;;;;;;36.27;18.97;;;;;;;;;;5052894;28;20043;-90
2023/12/18 11:00:10;;;;;;;36.13;17.83;;;;;;;;;;5045506;28;20038;-88
2023/12/18 11:02:37;;;;;;;29.83;14.70;;;;;;;;;;5054513;28;20032;-84
2023/12/18 11:05:03;;;;;;;30.43;15.97;;;;;;;;;;5055264;28;20075;-87
2023/12/18 11:07:32;;;;;;;31.60;15.23;;;;;;;;;;5053818;28;20044;-84
2023/12/18 11:10:25;;;;;;;34.13;16.80;;;;;;;;;;5053990;28;20009;-88
2023/12/18 11:13:02;;;;;;;36.53;16.27;;;;;;;;;;5053348;28;20023;-92
2023/12/18 11:15:43;;;;;;;35.37;17.03;;;;;;;;;;5046324;28;20061;-81
2023/12/18 11:18:17;;;;;;;32.50;16.87;;;;;;;;;;5038658;28;20041;-90
2023/12/18 11:20:43;;;;;;;33.53;15.60;;;;;;;;;;5052974;28;20026;-89
2023/12/18 11:23:13;;;;;;;29.17;15.53;;;;;;;;;;5050409;28;20030;-86
2023/12/18 11:25:43;;;;;;;27.17;15.67;;;;;;;;;;5054170;28;20022;-85
2023/12/18 11:28:11;;;;;;;26.07;14.73;;;;;;;;;;5053879;28;20052;-88
2023/12/18 11:30:44;;;;;;;27.87;15.47;;;;;;;;;;5031198;28;20018;-90
2023/12/18 11:33:11;;;;;;;30.87;13.53;;;;;;;;;;5047267;28;20030;-90
2023/12/18 11:35:38;;;;;;;27.90;14.20;;;;;;;;;;5041914;28;20030;-89
2023/12/18 11:38:08;;;;;;;25.47;13.60;;;;;;;;;;5032343;28;20117;-87
2023/12/18 11:40:35;;;;;;;29.07;15.47;;;;;;;;;;5044937;28;20139;-87
2023/12/18 11:43:05;;;;;;;81.43;50.00;;;;;;;;;;5038374;28;20053;-90
2023/12/18 11:45:33;;;;;;;33.70;18.97;;;;;;;;;;5045267;28;20052;-87
2023/12/18 11:48:04;;;;;;;30.00;15.17;;;;;;;;;;5061882;28;20034;-80
2023/12/18 11:50:37;;;;;;;28.53;15.33;;;;;;;;;;5057412;28;20045;-82
2023/12/18 11:53:08;;;;;;;26.93;13.87;;;;;;;;;;5054570;28;20033;-87
2023/12/18 11:55:39;;;;;;;34.97;14.00;;;;;;;;;;5055112;28;20038;-82
2023/12/18 11:58:06;;;;;;;28.77;15.10;;;;;;;;;;5048372;28;20017;-86
2023/12/18 12:00:35;;;;;;;27.67;14.40;;;;;;;;;;5051410;28;20030;-88
2023/12/18 12:03:02;;;;;;;30.37;16.07;;;;;;;;;;5056122;28;20037;-81
2023/12/18 12:05:38;;;;;;;29.30;14.77;;;;;;;;;;5057328;28;20014;-80
2023/12/18 12:08:04;;;;;;;26.47;14.60;;;;;;;;;;5066465;28;20018;-80
2023/12/18 12:10:33;;;;;;;26.43;14.73;;;;;;;;;;5056777;28;20029;-81
2023/12/18 12:12:59;;;;;;;31.20;16.20;;;;;;;;;;5051915;28;20036;-80
2023/12/18 12:15:25;;;;;;;30.07;15.63;;;;;;;;;;5047415;28;20034;-81
2023/12/18 12:17:51;;;;;;;29.77;15.50;;;;;;;;;;5054973;28;20018;-82
2023/12/18 12:20:18;;;;;;;25.33;15.17;;;;;;;;;;5045446;28;20013;-81
2023/12/18 12:22:44;;;;;;;31.00;14.17;;;;;;;;;;5050523;28;20084;-80
2023/12/18 12:25:10;;;;;;;39.33;17.63;;;;;;;;;;5049015;28;20014;-81
2023/12/18 12:27:36;;;;;;;26.37;14.37;;;;;;;;;;5045722;28;20021;-82
2023/12/18 12:30:03;;;;;;;138.03;66.47;;;;;;;;;;5053550;28;20040;-81
2023/12/18 12:32:29;;;;;;;222.43;110.63;;;;;;;;;;5050762;28;20026;-80
2023/12/18 12:34:56;;;;;;;38.30;22.07;;;;;;;;;;5055854;28;20037;-80
2023/12/18 12:37:23;;;;;;;29.63;14.97;;;;;;;;;;5052084;28;20033;-81
2023/12/18 12:40:06;;;;;;;29.47;15.90;;;;;;;;;;5056505;28;20033;-80
2023/12/18 12:42:32;;;;;;;;;;;;;;;;;;5055978;28;20036;-80
2023/12/18 12:44:58;;;;;;;25.97;14.43;;;;;;;;;;5054618;28;19909;-80
2023/12/18 12:47:27;;;;;;;27.33;14.50;;;;;;;;;;5055976;28;20119;-80
2023/12/18 12:49:54;;;;;;;27.77;15.67;;;;;;;;;;5056843;28;20017;-82
2023/12/18 12:52:20;;;;;;;33.23;15.97;;;;;;;;;;5055596;28;20033;-80
2023/12/18 12:54:49;;;;;;;27.83;13.63;;;;;;;;;;5056390;28;20013;-81
2023/12/18 12:57:18;;;;;;;27.20;16.13;;;;;;;;;;5055886;28;20085;-80
2023/12/18 12:59:58;;;;;;;28.47;14.63;;;;;;;;;;5058094;28;20037;-80
2023/12/18 13:02:34;;;;;;;24.50;13.17;;;;;;;;;;5056926;28;20014;-80
2023/12/18 13:05:02;;;;;;;27.13;14.67;;;;;;;;;;5057114;28;20022;-80
2023/12/18 13:07:31;;;;;;;33.83;15.37;;;;;;;;;;5056394;28;20018;-80
2023/12/18 13:10:16;;;;;;;29.03;13.93;;;;;;;;;;5053074;28;20048;-80
2023/12/18 13:16:08;;;;;;;25.43;14.33;;;;;;;;;;5059660;28;20009;-80
2023/12/18 13:18:36;;;;;;;27.92;14.43;;;;;;;;;;5055186;28;20021;-80
2023/12/18 13:21:02;;;;;;;22.47;13.87;;;;;;;;;;5056611;28;20029;-80
2023/12/18 13:23:31;;;;;;;22.63;13.93;;;;;;;;;;5057378;28;20037;-80
2023/12/18 13:26:00;;;;;;;26.23;14.43;;;;;;;;;;5052831;28;20041;-80
2023/12/18 13:28:32;;;;;;;22.50;13.63;;;;;;;;;;5051373;28;20018;-80
2023/12/18 13:31:04;;;;;;;25.55;13.18;;;;;;;;;;5056599;28;20052;-80
2023/12/18 13:33:36;;;;;;;26.47;12.77;;;;;;;;;;5057594;28;20010;-80
2023/12/18 13:36:04;;;;;;;20.85;12.93;;;;;;;;;;5053908;28;20040;-80
2023/12/18 13:38:40;;;;;;;21.00;13.03;;;;;;;;;;5102802;22;20043;-80
2023/12/18 13:41:11;;;;;;;22.53;13.13;;;;;;;;;;5056098;28;20025;-81
2023/12/18 13:43:41;;;;;;;21.20;11.53;;;;;;;;;;5069040;28;20056;-81
2023/12/18 13:46:10;;;;;;;25.13;13.67;;;;;;;;;;5072911;28;20041;-80
2023/12/18 13:48:56;;;;;;;21.67;12.60;;;;;;;;;;5056332;28;20093;-81
2023/12/18 14:13:23;;;;;;;22.40;12.30;;;;;;;;;;5044949;28;20044;-80
2023/12/18 14:16:13;;;;;;;;;;;;;;;;;;;;;
2023/12/18 14:18:54;;;;;;;;;;;;;;;;;;;;;
2023/12/18 14:21:32;;;;;;;19.27;9.07;;;;;;;;;;5055803;28;20029;-81
2023/12/18 14:24:00;;;;;;;21.10;9.37;;;;;;;;;;5055292;28;20060;-81
2023/12/18 14:26:26;;;;;;;13.57;8.83;;;;;;;;;;5054058;28;20014;-80
2023/12/18 14:28:52;;;;;;;13.90;9.03;;;;;;;;;;5055153;28;20018;-80
2023/12/18 14:31:18;;;;;;;13.27;7.97;;;;;;;;;;5054933;28;20037;-80
2023/12/18 14:33:45;;;;;;;15.77;8.57;;;;;;;;;;5054496;28;20036;-81
2023/12/18 14:36:16;;;;;;;16.27;8.13;;;;;;;;;;5055869;28;20043;-82
2023/12/18 14:41:45;;;;;;;18.37;8.60;;;;;;;;;;5055745;28;20044;-81
2023/12/18 14:44:15;;;;;;;15.10;7.97;;;;;;;;;;5055429;28;20017;-81
2023/12/18 14:46:59;;;;;;;16.10;7.47;;;;;;;;;;5056137;28;20094;-81
2023/12/18 14:50:12;;;;;;;;;;;;;;;;;;;;;
2023/12/18 14:52:41;;;;;;;9.83;6.03;;;;;;;;;;5075342;28;20100;-80
2023/12/18 14:55:26;;;;;;;12.40;7.20;;;;;;;;;;5074269;28;20013;-81
2023/12/18 15:00:47;;;;;;;11.53;6.53;;;;;;;;;;5074884;28;20079;-82
2023/12/18 15:06:18;;;;;;;9.37;5.93;;;;;;;;;;5073216;28;20081;-80
2023/12/18 15:08:48;;;;;;;10.03;5.33;;;;;;;;;;5074506;28;20084;-81
2023/12/18 15:11:17;;;;;;;9.33;5.47;;;;;;;;;;5056189;28;20040;-81
2023/12/18 15:16:21;;;;;;;8.33;5.33;;;;;;;;;;5081589;23;20049;-81
2023/12/18 15:18:47;;;;;;;7.60;5.37;;;;;;;;;;5054015;28;20033;-80